JZI weather

Charleston Executive Airport
Charleston, South Carolina, United States

Public forecast

Using degrees Fahrenheit for public forecast. Weather courtesy of forecast.io.

Current aviation weather report (METAR) for Charleston Executive Airport

Retrieved 2019/12/12 13:35 UTC (0 seconds ago):

KJZI 121335Z AUTO 00000KT 10SM CLR 07/M01 A3054 RMK AO2

Closest aviation forecast (TAF) to Charleston Executive Airport

Closest forecast is Charleston Air Force Base-International Airport, 12.0 nm (22.3 km) N. Retrieved 2019/12/12 12:37 UTC (45 minutes ago):

TAF KCHS 121133Z 1212/1312 03011KT P6SM FEW080 FM121400 05013G18KT P6SM FEW060 SCT070 FM121900 05011KT P6SM SCT025 BKN035 FM122100 05013G18KT P6SM VCSH SCT010 OVC025 FM130600 04009KT P6SM -RA SCT006 OVC012